| time (UTC) | temp F | wind direction | speed knots | gust knots | rain 1hr in | rain 24hr in | rain mn in | humidity % | barometer mb |
| 20260906064003 | 74 | 185 | 0.0 | 1.7 | 0.00 | 0.00 | 0.00 | 77 | 1020.0 |
| 20260906062003 | 74 | 103 | 0.9 | 0.9 | 0.00 | 0.00 | 0.00 | 76 | 1019.9 |
| 20260906060003 | 68 | 217 | 0.0 | 0.9 | 0.00 | 0.00 | 0.00 | 89 | 1019.8 |
| 20260906054024 | 68 | 217 | 0.0 | 0.9 | 0.00 | 0.00 | 0.00 | 89 | 1019.6 |
| 20260906052024 | 68 | 217 | 0.0 | 0.9 | 0.00 | 0.00 | 0.00 | 89 | 1019.6 |
| 20260906050003 | 68 | 186 | 0.9 | 0.9 | 0.00 | 0.00 | 0.00 | 89 | 1019.3 |
| 20260906044003 | 68 | 155 | 0.0 | 0.9 | 0.00 | 0.00 | 0.00 | 87 | 1019.2 |
| 20260906042003 | 68 | 153 | 0.0 | 0.9 | 0.00 | 0.00 | 0.00 | 87 | 1019.2 |
| 20260906040003 | 69 | 0 | 0.0 | 0.0 | 0.00 | 0.00 | 0.00 | 86 | 1019.0 |
| 20260906034003 | 69 | 0 | 0.0 | 0.0 | 0.00 | 0.00 | 0.00 | 86 | 1018.9 |
| 20260906032003 | 69 | 0 | 0.0 | 0.0 | 0.00 | 0.00 | 0.00 | 85 | 1019.0 |
| 20260906030004 | 70 | 0 | 0.0 | 0.0 | 0.00 | 0.00 | 0.00 | 85 | 1019.0 |
| 20260906024003 | 70 | 0 | 0.0 | 0.0 | 0.00 | 0.00 | 0.00 | 85 | 1019.1 |
| 20260906014003 | 72 | 0 | 0.0 | 0.0 | 0.00 | 0.00 | 0.00 | 79 | 1019.0 |
| 20260906012003 | 72 | 0 | 0.0 | 0.0 | 0.00 | 0.00 | 0.00 | 79 | 1019.0 |
| 20260906010003 | 72 | 0 | 0.0 | 0.0 | 0.00 | 0.00 | 0.00 | 79 | 1019.1 |
| 20260906004003 | 73 | 0 | 0.0 | 0.0 | 0.00 | 0.00 | 0.00 | 78 | 1018.9 |
| 20260906002003 | 76 | 141 | 0.9 | 1.7 | 0.00 | 0.00 | 0.00 | 73 | 1019.1 |
| 20260906000003 | 76 | 141 | 0.9 | 1.7 | 0.00 | 0.00 | 0.00 | 73 | 1019.0 |
| 20260905234003 | 76 | 141 | 0.9 | 1.7 | 0.00 | 0.00 | 0.00 | 73 | 1018.9 |
| 20260905232024 | 76 | 141 | 0.9 | 1.7 | 0.00 | 0.00 | 0.00 | 73 | 1019.0 |
| 20260905230003 | 76 | 141 | 0.9 | 1.7 | 0.00 | 0.00 | 0.00 | 73 | 1019.0 |
| 20260905224003 | 79 | 38 | 0.9 | 0.9 | 0.00 | 0.00 | 0.00 | 70 | 1018.9 |
| 20260905222003 | 79 | 38 | 0.9 | 0.9 | 0.00 | 0.00 | 0.00 | 70 | 1018.8 |
| 20260905220024 | 79 | 38 | 0.9 | 0.9 | 0.00 | 0.00 | 0.00 | 70 | 1018.8 |
| 20260905214003 | 79 | 38 | 0.9 | 0.9 | 0.00 | 0.00 | 0.00 | 70 | 1018.6 |
| 20260905212003 | 79 | 38 | 0.9 | 0.9 | 0.00 | 0.00 | 0.00 | 70 | 1018.7 |
| 20260905210003 | 79 | 38 | 0.9 | 0.9 | 0.00 | 0.00 | 0.00 | 70 | 1018.5 |
| 20260905204024 | 79 | 38 | 0.9 | 0.9 | 0.00 | 0.00 | 0.00 | 70 | 1018.4 |
| 20260905202003 | 79 | 53 | 0.9 | 1.7 | 0.00 | 0.00 | 0.00 | 70 | 1018.4 |
| 20260905200003 | 80 | 352 | 1.7 | 1.7 | 0.00 | 0.00 | 0.00 | 70 | 1018.3 |
| 20260905194003 | 80 | 54 | 0.9 | 0.9 | 0.00 | 0.00 | 0.00 | 71 | 1018.2 |
| 20260905192003 | 80 | 169 | 0.0 | 1.7 | 0.00 | 0.00 | 0.00 | 72 | 1018.0 |
| 20260905190003 | 82 | 230 | 0.9 | 1.7 | 0.00 | 0.00 | 0.00 | 68 | 1017.9 |
| 20260905184024 | 82 | 153 | 0.9 | 1.7 | 0.00 | 0.00 | 0.00 | 67 | 1017.8 |
| 20260905182024 | 82 | 181 | 0.9 | 1.7 | 0.00 | 0.00 | 0.00 | 67 | 1017.7 |
| 20260905180003 | 83 | 239 | 0.9 | 1.7 | 0.00 | 0.00 | 0.00 | 66 | 1017.4 |
| 20260905174003 | 83 | 169 | 0.9 | 2.6 | 0.00 | 0.00 | 0.00 | 64 | 1017.4 |
| 20260905172003 | 84 | 206 | 1.7 | 3.5 | 0.00 | 0.00 | 0.00 | 64 | 1017.2 |
| 20260905170003 | 84 | 198 | 1.7 | 7.0 | 0.00 | 0.00 | 0.00 | 63 | 1017.0 |
| 20260905164003 | 85 | 228 | 0.9 | 3.5 | 0.00 | 0.00 | 0.00 | 63 | 1016.8 |
| 20260905162003 | 86 | 215 | 3.5 | 7.0 | 0.00 | 0.00 | 0.00 | 63 | 1017.0 |
| 20260905160003 | 88 | 194 | 6.1 | 9.6 | 0.00 | 0.00 | 0.00 | 59 | 1016.5 |
| 20260905154003 | 89 | 207 | 3.5 | 7.8 | 0.00 | 0.00 | 0.00 | 54 | 1016.8 |
| 20260905152024 | 90 | 126 | 4.3 | 9.6 | 0.00 | 0.00 | 0.00 | 51 | 1016.6 |
| 20260905150003 | 91 | 172 | 5.2 | 6.1 | 0.00 | 0.00 | 0.00 | 45 | 1016.3 |
| 20260905144003 | 92 | 188 | 4.3 | 6.1 | 0.00 | 0.00 | 0.00 | 41 | 1016.3 |
| 20260905142003 | 93 | 120 | 12.2 | 13.0 | 0.00 | 0.00 | 0.00 | 37 | 1016.3 |
| 20260905140004 | 93 | 157 | 9.6 | 15.6 | 0.00 | 0.00 | 0.00 | 36 | 1016.3 |
| 20260905134003 | 95 | 89 | 2.6 | 3.5 | 0.00 | 0.00 | 0.00 | 35 | 1016.2 |
| 20260905132003 | 96 | 152 | 9.6 | 12.2 | 0.00 | 0.00 | 0.00 | 34 | 1016.4 |
| 20260905130003 | 96 | 152 | 7.0 | 12.2 | 0.00 | 0.00 | 0.00 | 34 | 1016.6 |
| 20260905124024 | 96 | 155 | 4.3 | 7.8 | 0.00 | 0.00 | 0.00 | 34 | 1016.7 |
| 20260905122003 | 96 | 189 | 6.1 | 8.7 | 0.00 | 0.00 | 0.00 | 33 | 1016.8 |
| 20260905120003 | 96 | 146 | 4.3 | 7.0 | 0.00 | 0.00 | 0.00 | 34 | 1017.1 |
| 20260905114003 | 94 | 171 | 2.6 | 2.6 | 0.00 | 0.00 | 0.00 | 35 | 1017.3 |
| 20260905112003 | 94 | 164 | 1.7 | 2.6 | 0.00 | 0.00 | 0.00 | 35 | 1017.5 |
| 20260905110003 | 94 | 210 | 1.7 | 2.6 | 0.00 | 0.00 | 0.00 | 37 | 1017.7 |
| 20260905104003 | 91 | 268 | 2.6 | 3.5 | 0.00 | 0.00 | 0.00 | 39 | 1018.1 |
| 20260905102003 | 91 | 185 | 1.7 | 6.1 | 0.00 | 0.00 | 0.00 | 38 | 1018.2 |
| 20260905100024 | 90 | 186 | 3.5 | 3.5 | 0.00 | 0.00 | 0.00 | 40 | 1018.4 |
| 20260905094003 | 89 | 140 | 0.9 | 1.7 | 0.00 | 0.00 | 0.00 | 43 | 1018.7 |
| 20260905092003 | 86 | 247 | 0.9 | 0.9 | 0.00 | 0.00 | 0.00 | 47 | 1018.8 |
| 20260905090003 | 86 | 247 | 0.9 | 0.9 | 0.00 | 0.00 | 0.00 | 47 | 1018.7 |
| 20260905084003 | 85 | 0 | 0.0 | 0.0 | 0.00 | 0.00 | 0.00 | 47 | 1018.9 |
| 20260905082003 | 84 | 104 | 0.0 | 0.9 | 0.00 | 0.00 | 0.00 | 49 | 1018.7 |
| 20260905080004 | 79 | 99 | 1.7 | 1.7 | 0.00 | 0.00 | 0.00 | 56 | 1018.6 |
| 20260905074003 | 79 | 99 | 1.7 | 2.6 | 0.00 | 0.00 | 0.00 | 56 | 1018.4 |
| 20260905072003 | 77 | 123 | 1.7 | 2.6 | 0.00 | 0.00 | 0.00 | 61 | 1018.2 |
| 20260905070004 | 76 | 129 | 0.9 | 1.7 | 0.00 | 0.00 | 0.00 | 61 | 1018.4 |